createdAt,value
2023-05-13T00:02:54.578Z,88.87
2023-05-13T00:08:01.816Z,89.84
2023-05-13T00:13:04.859Z,89.92
2023-05-13T00:18:09.236Z,89.38
2023-05-13T00:23:12.459Z,90.48
2023-05-13T00:28:15.387Z,90.66
2023-05-13T00:33:19.678Z,89.96
2023-05-13T00:38:22.623Z,90.00
2023-05-13T00:43:25.480Z,90.04
2023-05-13T00:48:30.347Z,90.36
2023-05-13T00:53:34.075Z,89.98
2023-05-13T00:58:37.010Z,90.52
2023-05-13T01:03:50.467Z,89.83
2023-05-13T01:09:02.635Z,89.42
2023-05-13T01:14:12.558Z,90.92
2023-05-13T01:19:32.502Z,90.42
2023-05-13T01:24:36.927Z,91.00
2023-05-13T01:29:41.372Z,92.58
2023-05-13T01:34:45.092Z,92.30
2023-05-13T01:39:49.941Z,91.14
2023-05-13T01:44:54.068Z,91.07
2023-05-13T01:49:57.492Z,90.89
2023-05-13T01:55:01.909Z,90.09
2023-05-13T02:00:08.159Z,90.61
2023-05-13T02:05:31.721Z,88.81
2023-05-13T02:10:38.260Z,90.43
2023-05-13T02:15:41.676Z,90.49
2023-05-13T02:20:45.719Z,90.39
2023-05-13T02:25:50.046Z,90.10
2023-05-13T02:30:52.956Z,89.91
2023-05-13T02:35:55.888Z,90.27
2023-05-13T02:41:00.384Z,90.89
2023-05-13T02:46:04.107Z,90.18
2023-05-13T02:51:09.562Z,89.61
2023-05-13T02:56:16.297Z,90.45
2023-05-13T03:01:19.445Z,89.99
2023-05-13T03:06:22.405Z,90.53
2023-05-13T03:11:26.862Z,90.70
2023-05-13T03:16:29.770Z,90.68
2023-05-13T03:21:33.400Z,90.80
2023-05-13T03:26:37.821Z,89.83
2023-05-13T03:31:41.149Z,90.24
2023-05-13T03:36:44.203Z,89.49
2023-05-13T03:41:49.169Z,89.76
2023-05-13T03:46:52.575Z,90.27
2023-05-13T03:51:56.085Z,89.59
2023-05-13T03:57:00.531Z,89.18
2023-05-13T04:02:03.869Z,89.30
2023-05-13T04:07:06.944Z,89.38
2023-05-13T04:12:11.244Z,87.18
2023-05-13T04:17:15.452Z,79.25
2023-05-13T04:22:18.402Z,74.85
2023-05-13T04:27:22.647Z,72.48
2023-05-13T04:32:26.508Z,69.28
2023-05-13T04:37:31.321Z,66.25
2023-05-13T04:42:39.766Z,66.81
2023-05-13T04:47:42.966Z,65.55
2023-05-13T04:52:47.299Z,65.65
2023-05-13T04:57:53.828Z,65.00
2023-05-13T05:02:58.120Z,65.71
2023-05-13T05:08:02.434Z,68.26
2023-05-13T05:13:06.763Z,65.42
2023-05-13T05:18:10.026Z,66.78
2023-05-13T05:23:15.277Z,64.43
2023-05-13T05:28:19.827Z,62.09
2023-05-13T05:33:23.611Z,62.35
2023-05-13T05:38:27.570Z,60.06
2023-05-13T05:43:33.780Z,58.49
2023-05-13T05:48:36.979Z,56.93
2023-05-13T05:53:41.106Z,56.54
2023-05-13T05:58:47.448Z,60.15
2023-05-13T06:03:54.872Z,59.59
2023-05-13T06:08:58.376Z,61.73
2023-05-13T06:14:02.769Z,61.62
2023-05-13T06:19:05.737Z,60.83
2023-05-13T06:24:09.244Z,60.73
2023-05-13T06:29:13.526Z,59.79
2023-05-13T06:34:16.889Z,59.88
2023-05-13T06:39:20.744Z,59.38
2023-05-13T06:44:25.316Z,57.88
2023-05-13T06:49:31.734Z,58.59
2023-05-13T06:54:34.662Z,57.74
2023-05-13T06:59:38.965Z,56.96
2023-05-13T07:04:41.827Z,55.29
2023-05-13T07:09:44.735Z,57.27
2023-05-13T07:14:49.102Z,57.78
2023-05-13T07:19:52.066Z,56.38
2023-05-13T07:24:55.029Z,54.72
2023-05-13T07:29:59.343Z,55.28
2023-05-13T07:35:02.241Z,56.16
2023-05-13T07:40:06.523Z,53.96
2023-05-13T07:45:11.963Z,54.76
2023-05-13T07:50:14.868Z,54.01
2023-05-13T07:55:17.844Z,50.67
2023-05-13T08:00:22.324Z,53.53
2023-05-13T08:05:25.327Z,53.20
2023-05-13T08:10:28.310Z,50.64
2023-05-13T08:15:32.602Z,49.48
2023-05-13T08:20:35.894Z,49.68
2023-05-13T08:25:38.830Z,48.53
2023-05-13T08:30:44.350Z,48.63
2023-05-13T08:35:47.902Z,51.56
2023-05-13T08:40:50.743Z,47.94
2023-05-13T08:45:57.712Z,46.96
2023-05-13T08:51:02.282Z,47.04
2023-05-13T08:56:10.432Z,49.27
2023-05-13T09:01:16.774Z,48.54
2023-05-13T09:06:19.663Z,45.70
2023-05-13T09:11:23.241Z,47.48
2023-05-13T09:16:29.501Z,45.59
2023-05-13T09:21:35.466Z,42.35
2023-05-13T09:26:39.201Z,45.39
2023-05-13T09:31:43.726Z,45.49
2023-05-13T09:36:46.716Z,42.31
2023-05-13T09:41:49.712Z,45.72
2023-05-13T09:46:55.487Z,46.34
2023-05-13T09:51:58.438Z,42.28
2023-05-13T09:57:01.759Z,43.33
2023-05-13T10:02:07.957Z,43.21
2023-05-13T10:07:13.214Z,44.24
2023-05-13T10:12:16.478Z,41.55
2023-05-13T10:17:21.484Z,42.06
2023-05-13T10:22:29.372Z,42.45
2023-05-13T10:27:33.714Z,44.58
2023-05-13T10:32:40.347Z,44.63
2023-05-13T10:37:57.451Z,44.19
2023-05-13T10:43:12.089Z,42.44
2023-05-13T10:48:17.882Z,41.54
2023-05-13T10:53:23.647Z,43.89
2023-05-13T10:58:30.485Z,42.54
2023-05-13T11:03:35.100Z,43.75
2023-05-13T11:08:39.288Z,43.72
2023-05-13T11:13:42.190Z,44.19
2023-05-13T11:18:46.796Z,44.62
2023-05-13T11:23:54.433Z,43.44
2023-05-13T11:28:59.835Z,42.85
2023-05-13T11:34:12.602Z,42.71
2023-05-13T11:39:17.612Z,41.67
2023-05-13T11:44:22.111Z,41.61
2023-05-13T11:49:42.828Z,41.56
2023-05-13T11:54:49.176Z,45.23
2023-05-13T11:59:56.981Z,44.73
2023-05-13T12:05:04.580Z,45.66
2023-05-13T12:10:09.108Z,45.37
2023-05-13T12:15:14.401Z,46.08
2023-05-13T12:20:19.996Z,48.61
2023-05-13T12:25:43.532Z,48.65
2023-05-13T12:30:52.279Z,48.33
2023-05-13T12:36:16.581Z,48.86
2023-05-13T12:41:19.511Z,48.10
2023-05-13T12:46:22.510Z,48.73
2023-05-13T12:51:27.144Z,50.30
2023-05-13T12:56:30.007Z,49.21
2023-05-13T13:01:33.352Z,49.03
2023-05-13T13:06:37.760Z,48.30
2023-05-13T13:11:40.675Z,47.77
2023-05-13T13:16:44.476Z,48.64
2023-05-13T13:21:48.738Z,49.52
2023-05-13T13:26:53.774Z,51.78
2023-05-13T13:31:56.814Z,51.13
2023-05-13T13:37:01.197Z,52.99
2023-05-13T13:42:04.921Z,49.95
2023-05-13T13:47:08.005Z,52.38
2023-05-13T13:52:12.529Z,50.68
2023-05-13T13:57:16.686Z,51.33
2023-05-13T14:02:19.819Z,52.98
2023-05-13T14:07:24.159Z,53.22
2023-05-13T14:12:27.145Z,55.55
2023-05-13T14:17:30.243Z,57.59
2023-05-13T14:22:34.670Z,54.97
2023-05-13T14:27:37.800Z,55.13
2023-05-13T14:32:45.032Z,54.19
2023-05-13T14:37:49.643Z,54.75
2023-05-13T14:42:52.573Z,55.11
2023-05-13T14:47:56.025Z,55.20
2023-05-13T14:53:00.477Z,54.13
2023-05-13T14:58:03.681Z,54.44
2023-05-13T15:03:06.710Z,54.51
2023-05-13T15:08:11.114Z,55.33
2023-05-13T15:13:14.032Z,54.09
2023-05-13T15:18:16.954Z,53.29
2023-05-13T15:23:21.196Z,53.68
2023-05-13T15:28:24.207Z,53.73
2023-05-13T15:33:27.469Z,53.33
2023-05-13T15:38:31.824Z,54.44
2023-05-13T15:43:35.109Z,56.26
2023-05-13T15:48:38.158Z,57.16
2023-05-13T15:53:42.439Z,57.95
2023-05-13T15:58:45.737Z,58.45
2023-05-13T16:03:48.696Z,58.89
2023-05-13T16:08:56.213Z,59.40
2023-05-13T16:13:59.775Z,59.96
2023-05-13T16:19:04.080Z,61.49
2023-05-13T16:24:08.916Z,61.59
2023-05-13T16:29:11.837Z,60.80
2023-05-13T16:34:14.835Z,60.49
2023-05-13T16:39:19.076Z,61.16
2023-05-13T16:44:22.224Z,61.33
2023-05-13T16:49:25.551Z,60.94
2023-05-13T16:54:29.855Z,62.13
2023-05-13T16:59:33.085Z,61.63
2023-05-13T17:04:36.452Z,61.88
2023-05-13T17:09:40.854Z,62.00
2023-05-13T17:14:43.893Z,62.36
2023-05-13T17:19:46.884Z,62.43
2023-05-13T17:24:51.185Z,63.15
2023-05-13T17:29:54.130Z,63.89
2023-05-13T17:34:57.480Z,64.82
2023-05-13T17:40:02.668Z,64.92
2023-05-13T17:45:06.319Z,66.63
2023-05-13T17:50:10.110Z,69.54
2023-05-13T17:55:14.429Z,69.85
2023-05-13T18:00:17.793Z,69.81
2023-05-13T18:05:21.662Z,71.08
2023-05-13T18:10:27.329Z,71.60
2023-05-13T18:15:30.201Z,72.13
2023-05-13T18:20:34.301Z,72.17
2023-05-13T18:25:48.838Z,71.78
2023-05-13T18:30:58.329Z,72.13
2023-05-13T18:36:01.284Z,72.12
2023-05-13T18:41:06.065Z,71.00
2023-05-13T18:46:09.498Z,71.48
2023-05-13T18:51:12.448Z,71.70
2023-05-13T18:56:16.715Z,71.77
2023-05-13T19:01:19.736Z,72.85
2023-05-13T19:06:22.801Z,73.17
2023-05-13T19:11:27.197Z,73.97
2023-05-13T19:16:32.497Z,75.23
2023-05-13T19:21:35.466Z,75.00
2023-05-13T19:26:39.715Z,75.30
2023-05-13T19:31:42.670Z,76.43
2023-05-13T19:36:46.148Z,76.77
2023-05-13T19:41:50.470Z,77.07
2023-05-13T19:46:53.473Z,77.64
2023-05-13T19:51:57.432Z,78.02
2023-05-13T19:57:01.829Z,78.54
2023-05-13T20:02:05.169Z,78.65
2023-05-13T20:07:09.380Z,79.79
2023-05-13T20:12:13.825Z,79.91
2023-05-13T20:17:18.293Z,80.40
2023-05-13T20:22:21.538Z,80.98
2023-05-13T20:27:25.797Z,81.29
2023-05-13T20:32:28.741Z,81.92
2023-05-13T20:37:31.669Z,82.32
2023-05-13T20:42:36.053Z,82.76
2023-05-13T20:47:38.938Z,83.02
2023-05-13T20:52:41.862Z,83.17
2023-05-13T20:57:46.058Z,83.75
2023-05-13T21:02:50.371Z,83.65
2023-05-13T21:07:53.363Z,84.01
2023-05-13T21:12:57.697Z,83.46
2023-05-13T21:18:00.604Z,83.55
2023-05-13T21:23:03.497Z,83.86
2023-05-13T21:28:08.203Z,84.10
2023-05-13T21:33:12.612Z,84.26
2023-05-13T21:38:15.517Z,84.06
2023-05-13T21:43:19.844Z,85.58
2023-05-13T21:48:22.889Z,85.18
2023-05-13T21:53:25.915Z,86.15
2023-05-13T21:58:30.507Z,87.11
2023-05-13T22:03:33.448Z,86.05
2023-05-13T22:08:36.362Z,85.86
2023-05-13T22:13:40.623Z,86.08
2023-05-13T22:18:43.836Z,85.44
2023-05-13T22:23:46.854Z,85.67
2023-05-13T22:28:51.163Z,86.98
2023-05-13T22:33:54.161Z,86.96
2023-05-13T22:38:56.998Z,86.96
2023-05-13T22:44:01.212Z,87.06
2023-05-13T22:49:04.193Z,86.54
2023-05-13T22:54:07.305Z,87.42
2023-05-13T22:59:12.392Z,87.31
2023-05-13T23:04:15.553Z,87.35
2023-05-13T23:09:18.599Z,87.02
2023-05-13T23:14:27.736Z,87.67
2023-05-13T23:19:30.834Z,88.23
2023-05-13T23:24:33.742Z,88.51
2023-05-13T23:29:38.044Z,88.77
2023-05-13T23:34:41.048Z,88.72
2023-05-13T23:39:43.965Z,88.71
2023-05-13T23:44:48.225Z,89.24
2023-05-13T23:49:51.160Z,88.88
2023-05-13T23:54:54.082Z,88.82
2023-05-13T23:59:58.396Z,88.66
